sensor_id;sensor_type;location;lat;lon;timestamp;pressure;altitude;pressure_sealevel;temperature;humidity
72124;BME280;63818;37.134;-8.548;2023-11-18T00:03:29;102069.1;;;19.7;81.1
72124;BME280;63818;37.134;-8.548;2023-11-18T00:08:17;102062.1;;;19.7;80.7
72124;BME280;63818;37.134;-8.548;2023-11-18T00:13:05;102064.8;;;19.7;81.2
72124;BME280;63818;37.134;-8.548;2023-11-18T00:17:53;102063.9;;;19.6;80.7
72124;BME280;63818;37.134;-8.548;2023-11-18T00:22:42;102062.6;;;19.6;81.2
72124;BME280;63818;37.134;-8.548;2023-11-18T00:27:30;102052.1;;;19.6;80.9
72124;BME280;63818;37.134;-8.548;2023-11-18T00:37:11;102041.8;;;19.6;81.0
72124;BME280;63818;37.134;-8.548;2023-11-18T00:42:00;102042.8;;;19.5;81.4
72124;BME280;63818;37.134;-8.548;2023-11-18T00:46:48;102037.2;;;19.5;81.2
72124;BME280;63818;37.134;-8.548;2023-11-18T00:51:36;102033.6;;;19.5;81.1
72124;BME280;63818;37.134;-8.548;2023-11-18T00:56:30;102024.0;;;19.5;81.0
72124;BME280;63818;37.134;-8.548;2023-11-18T01:01:18;102016.4;;;19.4;80.9
72124;BME280;63818;37.134;-8.548;2023-11-18T01:06:27;102025.3;;;19.4;80.9
72124;BME280;63818;37.134;-8.548;2023-11-18T01:11:17;102019.0;;;19.4;80.8
72124;BME280;63818;37.134;-8.548;2023-11-18T01:16:15;102015.5;;;19.4;81.0
72124;BME280;63818;37.134;-8.548;2023-11-18T01:21:04;102013.2;;;19.4;80.8
72124;BME280;63818;37.134;-8.548;2023-11-18T01:25:52;102013.6;;;19.4;80.4
72124;BME280;63818;37.134;-8.548;2023-11-18T01:30:39;102002.2;;;19.4;80.4
72124;BME280;63818;37.134;-8.548;2023-11-18T01:35:27;102005.3;;;19.4;80.2
72124;BME280;63818;37.134;-8.548;2023-11-18T01:40:15;102004.8;;;19.4;80.1
72124;BME280;63818;37.134;-8.548;2023-11-18T01:45:09;102000.5;;;19.3;80.4
72124;BME280;63818;37.134;-8.548;2023-11-18T01:49:58;101998.0;;;19.3;79.9
72124;BME280;63818;37.134;-8.548;2023-11-18T01:54:47;101995.6;;;19.3;80.0
72124;BME280;63818;37.134;-8.548;2023-11-18T01:59:36;102000.7;;;19.3;80.0
72124;BME280;63818;37.134;-8.548;2023-11-18T02:04:31;101986.3;;;19.3;79.4
72124;BME280;63818;37.134;-8.548;2023-11-18T02:09:24;101982.3;;;19.3;79.2
72124;BME280;63818;37.134;-8.548;2023-11-18T02:14:14;101987.4;;;19.3;79.3
72124;BME280;63818;37.134;-8.548;2023-11-18T02:19:03;101977.2;;;19.2;79.3
72124;BME280;63818;37.134;-8.548;2023-11-18T02:23:56;101982.6;;;19.2;79.5
72124;BME280;63818;37.134;-8.548;2023-11-18T02:28:44;101980.1;;;19.2;79.6
72124;BME280;63818;37.134;-8.548;2023-11-18T02:33:36;101973.4;;;19.2;79.9
72124;BME280;63818;37.134;-8.548;2023-11-18T02:38:42;101969.9;;;19.2;79.6
72124;BME280;63818;37.134;-8.548;2023-11-18T02:43:26;101975.7;;;19.1;80.1
72124;BME280;63818;37.134;-8.548;2023-11-18T02:48:18;101969.3;;;19.1;79.9
72124;BME280;63818;37.134;-8.548;2023-11-18T02:53:06;101973.8;;;19.1;80.2
72124;BME280;63818;37.134;-8.548;2023-11-18T02:57:53;101972.2;;;19.1;80.3
72124;BME280;63818;37.134;-8.548;2023-11-18T03:02:51;101981.4;;;19.0;80.0
72124;BME280;63818;37.134;-8.548;2023-11-18T03:07:40;101971.5;;;19.0;80.3
72124;BME280;63818;37.134;-8.548;2023-11-18T03:12:34;101972.3;;;19.0;80.5
72124;BME280;63818;37.134;-8.548;2023-11-18T03:17:22;101975.8;;;19.0;80.4
72124;BME280;63818;37.134;-8.548;2023-11-18T03:22:12;101969.1;;;19.0;79.9
72124;BME280;63818;37.134;-8.548;2023-11-18T03:27:00;101973.6;;;18.9;79.9
72124;BME280;63818;37.134;-8.548;2023-11-18T03:31:48;101975.9;;;18.9;79.8
72124;BME280;63818;37.134;-8.548;2023-11-18T03:36:46;101975.7;;;18.9;80.1
72124;BME280;63818;37.134;-8.548;2023-11-18T03:41:34;101970.2;;;18.8;80.2
72124;BME280;63818;37.134;-8.548;2023-11-18T03:46:22;101969.4;;;18.8;80.1
72124;BME280;63818;37.134;-8.548;2023-11-18T03:51:15;101967.5;;;18.8;80.1
72124;BME280;63818;37.134;-8.548;2023-11-18T03:56:03;101968.8;;;18.8;80.2
72124;BME280;63818;37.134;-8.548;2023-11-18T04:00:52;101969.1;;;18.7;80.1
72124;BME280;63818;37.134;-8.548;2023-11-18T04:05:46;101973.3;;;18.7;80.4
72124;BME280;63818;37.134;-8.548;2023-11-18T04:10:34;101972.8;;;18.7;80.0
72124;BME280;63818;37.134;-8.548;2023-11-18T04:20:27;101957.8;;;18.6;80.0
72124;BME280;63818;37.134;-8.548;2023-11-18T04:25:16;101965.4;;;18.6;80.1
72124;BME280;63818;37.134;-8.548;2023-11-18T04:30:17;101958.3;;;18.6;80.5
72124;BME280;63818;37.134;-8.548;2023-11-18T04:35:06;101955.4;;;18.5;80.3
72124;BME280;63818;37.134;-8.548;2023-11-18T04:39:56;101954.2;;;18.5;80.5
72124;BME280;63818;37.134;-8.548;2023-11-18T04:44:44;101956.4;;;18.5;80.7
72124;BME280;63818;37.134;-8.548;2023-11-18T04:49:39;101955.5;;;18.5;80.3
72124;BME280;63818;37.134;-8.548;2023-11-18T04:54:27;101952.3;;;18.4;80.6
72124;BME280;63818;37.134;-8.548;2023-11-18T04:59:18;101958.9;;;18.4;80.7
72124;BME280;63818;37.134;-8.548;2023-11-18T05:04:06;101963.9;;;18.4;80.6
72124;BME280;63818;37.134;-8.548;2023-11-18T05:08:56;101967.7;;;18.4;80.4
72124;BME280;63818;37.134;-8.548;2023-11-18T05:13:44;101966.9;;;18.4;80.6
72124;BME280;63818;37.134;-8.548;2023-11-18T05:18:44;101972.7;;;18.4;80.6
72124;BME280;63818;37.134;-8.548;2023-11-18T05:23:33;101967.9;;;18.3;80.4
72124;BME280;63818;37.134;-8.548;2023-11-18T05:28:21;101973.5;;;18.3;80.1
72124;BME280;63818;37.134;-8.548;2023-11-18T05:33:09;101971.5;;;18.3;80.2
72124;BME280;63818;37.134;-8.548;2023-11-18T05:38:07;101977.6;;;18.2;80.5
72124;BME280;63818;37.134;-8.548;2023-11-18T05:42:56;101982.0;;;18.2;80.0
72124;BME280;63818;37.134;-8.548;2023-11-18T05:48:03;101988.2;;;18.2;80.4
72124;BME280;63818;37.134;-8.548;2023-11-18T05:52:53;101989.8;;;18.2;80.4
72124;BME280;63818;37.134;-8.548;2023-11-18T05:57:49;101988.5;;;18.1;80.5
72124;BME280;63818;37.134;-8.548;2023-11-18T06:02:37;101990.7;;;18.1;80.4
72124;BME280;63818;37.134;-8.548;2023-11-18T06:12:18;102010.4;;;18.1;80.1
72124;BME280;63818;37.134;-8.548;2023-11-18T06:17:06;102009.5;;;18.0;79.9
72124;BME280;63818;37.134;-8.548;2023-11-18T06:22:04;102008.5;;;18.0;80.3
72124;BME280;63818;37.134;-8.548;2023-11-18T06:26:52;102016.9;;;18.0;80.3
72124;BME280;63818;37.134;-8.548;2023-11-18T06:31:40;102018.5;;;18.0;80.7
72124;BME280;63818;37.134;-8.548;2023-11-18T06:36:28;102026.9;;;18.0;80.3
72124;BME280;63818;37.134;-8.548;2023-11-18T06:41:22;102036.1;;;17.9;80.3
72124;BME280;63818;37.134;-8.548;2023-11-18T06:46:13;102039.6;;;17.9;80.6
72124;BME280;63818;37.134;-8.548;2023-11-18T06:51:01;102045.4;;;17.9;80.4
72124;BME280;63818;37.134;-8.548;2023-11-18T06:55:49;102040.9;;;17.9;80.3
72124;BME280;63818;37.134;-8.548;2023-11-18T07:00:38;102044.9;;;17.9;80.2
72124;BME280;63818;37.134;-8.548;2023-11-18T07:05:29;102047.0;;;17.8;80.3
72124;BME280;63818;37.134;-8.548;2023-11-18T07:10:25;102062.2;;;17.8;80.2
72124;BME280;63818;37.134;-8.548;2023-11-18T07:15:15;102057.4;;;17.8;80.1
72124;BME280;63818;37.134;-8.548;2023-11-18T07:20:04;102064.7;;;17.8;79.8
72124;BME280;63818;37.134;-8.548;2023-11-18T07:24:52;102054.7;;;17.8;80.1
72124;BME280;63818;37.134;-8.548;2023-11-18T07:29:40;102059.9;;;17.8;79.9
72124;BME280;63818;37.134;-8.548;2023-11-18T07:34:31;102068.6;;;17.8;79.9
72124;BME280;63818;37.134;-8.548;2023-11-18T07:39:18;102070.2;;;17.8;79.8
72124;BME280;63818;37.134;-8.548;2023-11-18T07:44:09;102074.3;;;17.8;79.9
72124;BME280;63818;37.134;-8.548;2023-11-18T07:48:57;102078.2;;;17.8;80.1
72124;BME280;63818;37.134;-8.548;2023-11-18T07:54:03;102070.8;;;17.8;80.1
72124;BME280;63818;37.134;-8.548;2023-11-18T07:58:51;102076.7;;;17.8;80.1
72124;BME280;63818;37.134;-8.548;2023-11-18T08:03:39;102082.7;;;17.8;80.2
72124;BME280;63818;37.134;-8.548;2023-11-18T08:08:32;102088.9;;;17.8;80.2
72124;BME280;63818;37.134;-8.548;2023-11-18T08:13:20;102096.7;;;17.8;80.2
72124;BME280;63818;37.134;-8.548;2023-11-18T08:18:17;102094.3;;;17.9;80.2
72124;BME280;63818;37.134;-8.548;2023-11-18T08:23:05;102109.5;;;17.9;79.8
72124;BME280;63818;37.134;-8.548;2023-11-18T08:27:58;102097.6;;;18.0;79.6
72124;BME280;63818;37.134;-8.548;2023-11-18T08:32:46;102092.4;;;18.0;79.9
72124;BME280;63818;37.134;-8.548;2023-11-18T08:37:36;102102.1;;;18.0;80.3
72124;BME280;63818;37.134;-8.548;2023-11-18T08:42:25;102103.4;;;18.0;80.4
72124;BME280;63818;37.134;-8.548;2023-11-18T08:47:13;102115.6;;;18.0;80.3
72124;BME280;63818;37.134;-8.548;2023-11-18T08:52:10;102120.0;;;18.1;80.9
72124;BME280;63818;37.134;-8.548;2023-11-18T08:56:59;102124.2;;;18.2;81.0
72124;BME280;63818;37.134;-8.548;2023-11-18T09:01:47;102133.6;;;18.2;80.9
72124;BME280;63818;37.134;-8.548;2023-11-18T09:06:37;102137.3;;;18.2;80.9
72124;BME280;63818;37.134;-8.548;2023-11-18T09:11:25;102146.4;;;18.3;81.5
72124;BME280;63818;37.134;-8.548;2023-11-18T09:16:23;102151.2;;;18.3;81.3
72124;BME280;63818;37.134;-8.548;2023-11-18T09:21:12;102160.8;;;18.4;81.9
72124;BME280;63818;37.134;-8.548;2023-11-18T09:26:02;102168.8;;;18.4;82.2
72124;BME280;63818;37.134;-8.548;2023-11-18T09:30:50;102170.8;;;18.4;82.4
72124;BME280;63818;37.134;-8.548;2023-11-18T09:35:39;102167.8;;;18.5;82.8
72124;BME280;63818;37.134;-8.548;2023-11-18T09:40:29;102172.2;;;18.5;82.6
72124;BME280;63818;37.134;-8.548;2023-11-18T09:45:20;102185.2;;;18.5;82.7
72124;BME280;63818;37.134;-8.548;2023-11-18T09:50:10;102186.5;;;18.5;83.3
72124;BME280;63818;37.134;-8.548;2023-11-18T09:55:02;102192.1;;;18.6;83.2
72124;BME280;63818;37.134;-8.548;2023-11-18T09:59:58;102204.3;;;18.6;83.3
72124;BME280;63818;37.134;-8.548;2023-11-18T10:04:49;102205.6;;;18.6;83.2
72124;BME280;63818;37.134;-8.548;2023-11-18T10:09:37;102200.2;;;18.7;83.0
72124;BME280;63818;37.134;-8.548;2023-11-18T10:14:25;102213.7;;;18.7;82.7
72124;BME280;63818;37.134;-8.548;2023-11-18T10:19:14;102206.5;;;18.8;82.5
72124;BME280;63818;37.134;-8.548;2023-11-18T10:24:09;102202.3;;;18.8;82.3
72124;BME280;63818;37.134;-8.548;2023-11-18T10:29:04;102195.4;;;18.8;82.2
72124;BME280;63818;37.134;-8.548;2023-11-18T10:33:52;102197.1;;;18.9;82.4
72124;BME280;63818;37.134;-8.548;2023-11-18T10:38:40;102200.6;;;19.0;82.9
72124;BME280;63818;37.134;-8.548;2023-11-18T10:43:30;102197.9;;;19.0;82.6
72124;BME280;63818;37.134;-8.548;2023-11-18T10:48:19;102183.2;;;19.1;83.2
72124;BME280;63818;37.134;-8.548;2023-11-18T10:53:08;102189.2;;;19.1;83.4
72124;BME280;63818;37.134;-8.548;2023-11-18T10:58:08;102190.0;;;19.1;82.9
72124;BME280;63818;37.134;-8.548;2023-11-18T11:02:59;102191.9;;;19.1;81.9
72124;BME280;63818;37.134;-8.548;2023-11-18T11:07:48;102188.0;;;19.1;80.5
72124;BME280;63818;37.134;-8.548;2023-11-18T11:12:41;102188.8;;;19.1;79.9
72124;BME280;63818;37.134;-8.548;2023-11-18T11:17:31;102187.9;;;19.2;79.7
72124;BME280;63818;37.134;-8.548;2023-11-18T11:22:37;102180.9;;;19.2;79.8
72124;BME280;63818;37.134;-8.548;2023-11-18T11:27:28;102184.5;;;19.2;79.2
72124;BME280;63818;37.134;-8.548;2023-11-18T11:32:26;102174.0;;;19.2;78.9
72124;BME280;63818;37.134;-8.548;2023-11-18T11:37:28;102172.2;;;19.3;78.4
72124;BME280;63818;37.134;-8.548;2023-11-18T11:42:17;102162.9;;;19.3;77.6
72124;BME280;63818;37.134;-8.548;2023-11-18T11:47:06;102143.9;;;19.3;77.5
72124;BME280;63818;37.134;-8.548;2023-11-18T11:52:07;102147.9;;;19.3;77.2
72124;BME280;63818;37.134;-8.548;2023-11-18T11:56:57;102136.6;;;19.3;77.2
72124;BME280;63818;37.134;-8.548;2023-11-18T12:01:47;102131.3;;;19.3;76.0
72124;BME280;63818;37.134;-8.548;2023-11-18T12:06:48;102122.1;;;19.4;76.1
72124;BME280;63818;37.134;-8.548;2023-11-18T12:11:37;102121.1;;;19.4;74.4
72124;BME280;63818;37.134;-8.548;2023-11-18T12:16:57;102121.0;;;19.5;74.6
72124;BME280;63818;37.134;-8.548;2023-11-18T12:22:08;102113.6;;;19.5;74.4
72124;BME280;63818;37.134;-8.548;2023-11-18T12:26:58;102101.7;;;19.5;74.7
72124;BME280;63818;37.134;-8.548;2023-11-18T12:31:47;102106.7;;;19.5;75.4
72124;BME280;63818;37.134;-8.548;2023-11-18T12:37:41;102090.3;;;19.5;75.1
72124;BME280;63818;37.134;-8.548;2023-11-18T12:43:07;102096.7;;;19.5;76.0
72124;BME280;63818;37.134;-8.548;2023-11-18T12:48:05;102089.6;;;19.5;76.6
72124;BME280;63818;37.134;-8.548;2023-11-18T12:52:53;102090.1;;;19.6;77.1
72124;BME280;63818;37.134;-8.548;2023-11-18T12:57:51;102086.6;;;19.6;77.4
72124;BME280;63818;37.134;-8.548;2023-11-18T13:02:40;102088.2;;;19.6;76.9
72124;BME280;63818;37.134;-8.548;2023-11-18T13:07:30;102086.8;;;19.6;76.7
72124;BME280;63818;37.134;-8.548;2023-11-18T13:12:21;102079.6;;;19.7;75.2
72124;BME280;63818;37.134;-8.548;2023-11-18T13:17:13;102068.5;;;19.7;74.2
72124;BME280;63818;37.134;-8.548;2023-11-18T13:22:05;102059.6;;;19.8;73.4
72124;BME280;63818;37.134;-8.548;2023-11-18T13:26:54;102060.3;;;19.8;72.4
72124;BME280;63818;37.134;-8.548;2023-11-18T13:31:54;102052.7;;;19.9;72.9
72124;BME280;63818;37.134;-8.548;2023-11-18T13:36:42;102042.8;;;20.0;71.7
72124;BME280;63818;37.134;-8.548;2023-11-18T13:42:23;102049.3;;;20.0;72.0
72124;BME280;63818;37.134;-8.548;2023-11-18T13:47:12;102050.8;;;20.1;73.2
72124;BME280;63818;37.134;-8.548;2023-11-18T13:52:00;102044.5;;;20.2;73.3
72124;BME280;63818;37.134;-8.548;2023-11-18T13:56:59;102055.8;;;20.3;73.8
72124;BME280;63818;37.134;-8.548;2023-11-18T14:01:48;102039.9;;;20.5;73.1
72124;BME280;63818;37.134;-8.548;2023-11-18T14:06:37;102046.2;;;20.6;73.3
72124;BME280;63818;37.134;-8.548;2023-11-18T14:11:27;102045.9;;;20.8;72.9
72124;BME280;63818;37.134;-8.548;2023-11-18T14:16:18;102030.6;;;21.0;72.1
72124;BME280;63818;37.134;-8.548;2023-11-18T14:21:06;102021.2;;;21.3;71.4
72124;BME280;63818;37.134;-8.548;2023-11-18T14:25:54;102024.1;;;21.8;69.9
72124;BME280;63818;37.134;-8.548;2023-11-18T14:30:42;102013.5;;;22.4;68.2
72124;BME280;63818;37.134;-8.548;2023-11-18T14:35:30;102006.4;;;23.2;64.7
72124;BME280;63818;37.134;-8.548;2023-11-18T14:40:19;101991.4;;;24.0;61.1
72124;BME280;63818;37.134;-8.548;2023-11-18T14:45:07;101998.6;;;24.6;58.9
72124;BME280;63818;37.134;-8.548;2023-11-18T14:49:55;101983.5;;;25.1;56.8
72124;BME280;63818;37.134;-8.548;2023-11-18T14:54:44;101973.8;;;25.6;55.1
72124;BME280;63818;37.134;-8.548;2023-11-18T14:59:32;101967.4;;;25.9;53.9
72124;BME280;63818;37.134;-8.548;2023-11-18T15:04:20;101954.7;;;26.2;53.1
72124;BME280;63818;37.134;-8.548;2023-11-18T15:09:10;101963.1;;;26.4;52.3
72124;BME280;63818;37.134;-8.548;2023-11-18T15:13:58;101948.1;;;26.4;51.8
72124;BME280;63818;37.134;-8.548;2023-11-18T15:18:56;101951.5;;;26.2;51.9
72124;BME280;63818;37.134;-8.548;2023-11-18T15:23:44;101955.6;;;25.5;53.2
72124;BME280;63818;37.134;-8.548;2023-11-18T15:28:32;101965.9;;;24.8;54.8
72124;BME280;63818;37.134;-8.548;2023-11-18T15:33:20;101975.6;;;24.5;56.5
72124;BME280;63818;37.134;-8.548;2023-11-18T15:38:50;101975.5;;;24.1;58.0
72124;BME280;63818;37.134;-8.548;2023-11-18T15:43:38;101993.9;;;23.9;59.8
72124;BME280;63818;37.134;-8.548;2023-11-18T15:48:40;102001.1;;;23.8;60.7
72124;BME280;63818;37.134;-8.548;2023-11-18T15:53:28;102002.0;;;23.6;61.6
72124;BME280;63818;37.134;-8.548;2023-11-18T15:58:16;102005.3;;;23.5;62.5
72124;BME280;63818;37.134;-8.548;2023-11-18T16:03:05;102004.6;;;23.3;62.9
72124;BME280;63818;37.134;-8.548;2023-11-18T16:08:00;98394.2;;;-1.0;62.0
72124;BME280;63818;37.134;-8.548;2023-11-18T16:12:48;102005.9;;;23.0;64.1
72124;BME280;63818;37.134;-8.548;2023-11-18T16:17:36;102007.5;;;22.6;65.1
72124;BME280;63818;37.134;-8.548;2023-11-18T16:22:24;102006.7;;;22.5;65.8
72124;BME280;63818;37.134;-8.548;2023-11-18T16:27:38;102007.4;;;22.3;66.6
72124;BME280;63818;37.134;-8.548;2023-11-18T16:32:26;102006.9;;;22.1;67.9
72124;BME280;63818;37.134;-8.548;2023-11-18T16:42:31;102003.7;;;21.7;68.7
72124;BME280;63818;37.134;-8.548;2023-11-18T16:47:19;102010.1;;;21.6;69.9
72124;BME280;63818;37.134;-8.548;2023-11-18T16:52:09;102007.5;;;21.5;70.6
72124;BME280;63818;37.134;-8.548;2023-11-18T16:56:57;102010.5;;;21.5;71.0
72124;BME280;63818;37.134;-8.548;2023-11-18T17:02:03;102013.8;;;21.4;71.3
72124;BME280;63818;37.134;-8.548;2023-11-18T17:06:51;102017.5;;;21.3;71.1
72124;BME280;63818;37.134;-8.548;2023-11-18T17:11:39;102019.6;;;21.2;71.6
72124;BME280;63818;37.134;-8.548;2023-11-18T17:17:11;102018.3;;;21.2;72.1
72124;BME280;63818;37.134;-8.548;2023-11-18T17:21:59;102013.4;;;21.2;72.3
72124;BME280;63818;37.134;-8.548;2023-11-18T17:31:43;102019.7;;;21.0;72.7
72124;BME280;63818;37.134;-8.548;2023-11-18T17:37:04;102028.1;;;21.0;73.1
72124;BME280;63818;37.134;-8.548;2023-11-18T17:41:52;102030.2;;;20.9;74.3
72124;BME280;63818;37.134;-8.548;2023-11-18T17:46:43;102032.8;;;20.9;74.5
72124;BME280;63818;37.134;-8.548;2023-11-18T17:51:31;102035.0;;;20.8;75.3
72124;BME280;63818;37.134;-8.548;2023-11-18T17:56:18;102039.9;;;20.8;75.4
72124;BME280;63818;37.134;-8.548;2023-11-18T18:01:20;102043.7;;;20.7;75.9
72124;BME280;63818;37.134;-8.548;2023-11-18T18:06:12;102053.4;;;20.7;76.2
72124;BME280;63818;37.134;-8.548;2023-11-18T18:11:03;102047.0;;;20.6;76.7
72124;BME280;63818;37.134;-8.548;2023-11-18T18:15:51;102055.4;;;20.6;76.4
72124;BME280;63818;37.134;-8.548;2023-11-18T18:20:49;102054.2;;;20.6;76.5
72124;BME280;63818;37.134;-8.548;2023-11-18T18:25:37;102052.5;;;20.5;76.1
72124;BME280;63818;37.134;-8.548;2023-11-18T18:30:25;102060.6;;;20.5;75.9
72124;BME280;63818;37.134;-8.548;2023-11-18T18:35:16;102063.6;;;20.5;76.2
72124;BME280;63818;37.134;-8.548;2023-11-18T18:40:05;102061.6;;;20.4;75.8
72124;BME280;63818;37.134;-8.548;2023-11-18T18:44:53;102064.7;;;20.4;76.1
72124;BME280;63818;37.134;-8.548;2023-11-18T18:49:46;102065.7;;;20.4;76.2
72124;BME280;63818;37.134;-8.548;2023-11-18T18:54:34;102066.0;;;20.4;76.3
72124;BME280;63818;37.134;-8.548;2023-11-18T18:59:29;102071.8;;;20.4;76.4
72124;BME280;63818;37.134;-8.548;2023-11-18T19:04:20;102078.1;;;20.4;76.7
72124;BME280;63818;37.134;-8.548;2023-11-18T19:09:12;102072.1;;;20.3;76.7
72124;BME280;63818;37.134;-8.548;2023-11-18T19:14:00;102069.3;;;20.3;76.9
72124;BME280;63818;37.134;-8.548;2023-11-18T19:18:48;102073.0;;;20.2;76.8
72124;BME280;63818;37.134;-8.548;2023-11-18T19:23:46;102079.8;;;20.2;76.8
72124;BME280;63818;37.134;-8.548;2023-11-18T19:28:34;102075.2;;;20.2;76.7
72124;BME280;63818;37.134;-8.548;2023-11-18T19:33:22;102072.8;;;20.2;76.3
72124;BME280;63818;37.134;-8.548;2023-11-18T19:38:10;102079.4;;;20.2;76.4
72124;BME280;63818;37.134;-8.548;2023-11-18T19:43:02;102076.2;;;20.1;76.4
72124;BME280;63818;37.134;-8.548;2023-11-18T19:52:43;102072.8;;;20.1;76.2
72124;BME280;63818;37.134;-8.548;2023-11-18T19:57:31;102073.9;;;20.0;76.5
72124;BME280;63818;37.134;-8.548;2023-11-18T20:02:19;102070.3;;;20.0;76.4
72124;BME280;63818;37.134;-8.548;2023-11-18T20:07:07;102074.0;;;20.0;76.5
72124;BME280;63818;37.134;-8.548;2023-11-18T20:11:55;102057.0;;;19.9;76.6
72124;BME280;63818;37.134;-8.548;2023-11-18T20:21:39;102065.3;;;19.8;76.3
72124;BME280;63818;37.134;-8.548;2023-11-18T20:26:27;102048.2;;;19.8;76.5
72124;BME280;63818;37.134;-8.548;2023-11-18T20:31:50;102052.3;;;19.8;76.5
72124;BME280;63818;37.134;-8.548;2023-11-18T20:36:38;102049.0;;;19.7;75.9
72124;BME280;63818;37.134;-8.548;2023-11-18T20:41:28;102052.6;;;19.7;75.8
72124;BME280;63818;37.134;-8.548;2023-11-18T20:46:18;102048.6;;;19.7;75.6
72124;BME280;63818;37.134;-8.548;2023-11-18T20:51:06;102057.6;;;19.6;75.7
72124;BME280;63818;37.134;-8.548;2023-11-18T20:55:54;102059.2;;;19.6;76.3
72124;BME280;63818;37.134;-8.548;2023-11-18T21:01:01;102061.8;;;19.6;75.9
72124;BME280;63818;37.134;-8.548;2023-11-18T21:05:49;102055.9;;;19.6;75.7
72124;BME280;63818;37.134;-8.548;2023-11-18T21:10:37;102058.7;;;19.6;76.0
72124;BME280;63818;37.134;-8.548;2023-11-18T21:15:25;102056.6;;;19.6;76.2
72124;BME280;63818;37.134;-8.548;2023-11-18T21:20:13;102052.6;;;19.5;76.4
72124;BME280;63818;37.134;-8.548;2023-11-18T21:25:01;102048.9;;;19.5;76.4
72124;BME280;63818;37.134;-8.548;2023-11-18T21:29:53;102044.2;;;19.5;75.9
72124;BME280;63818;37.134;-8.548;2023-11-18T21:34:41;102038.6;;;19.4;76.4
72124;BME280;63818;37.134;-8.548;2023-11-18T21:39:34;102041.0;;;19.4;76.1
72124;BME280;63818;37.134;-8.548;2023-11-18T21:44:22;102040.0;;;19.4;76.3
72124;BME280;63818;37.134;-8.548;2023-11-18T21:49:24;102030.1;;;19.4;76.2
72124;BME280;63818;37.134;-8.548;2023-11-18T21:54:12;102036.7;;;19.4;76.4
72124;BME280;63818;37.134;-8.548;2023-11-18T21:59:03;102031.8;;;19.3;76.5
72124;BME280;63818;37.134;-8.548;2023-11-18T22:03:51;102032.6;;;19.3;76.2
72124;BME280;63818;37.134;-8.548;2023-11-18T22:08:39;102028.6;;;19.3;76.6
72124;BME280;63818;37.134;-8.548;2023-11-18T22:13:36;102025.1;;;19.3;76.3
72124;BME280;63818;37.134;-8.548;2023-11-18T22:18:29;102033.5;;;19.2;76.1
72124;BME280;63818;37.134;-8.548;2023-11-18T22:23:17;102023.9;;;19.1;75.8
72124;BME280;63818;37.134;-8.548;2023-11-18T22:28:17;102021.5;;;19.1;75.5
72124;BME280;63818;37.134;-8.548;2023-11-18T22:33:05;102019.0;;;19.1;75.3
72124;BME280;63818;37.134;-8.548;2023-11-18T22:37:53;102015.5;;;19.1;75.4
72124;BME280;63818;37.134;-8.548;2023-11-18T22:42:43;102015.3;;;19.0;75.3
72124;BME280;63818;37.134;-8.548;2023-11-18T22:47:31;102004.3;;;19.0;75.6
72124;BME280;63818;37.134;-8.548;2023-11-18T22:57:12;101997.0;;;18.9;75.0
72124;BME280;63818;37.134;-8.548;2023-11-18T23:02:00;101994.0;;;18.9;74.5
72124;BME280;63818;37.134;-8.548;2023-11-18T23:06:52;101988.0;;;18.8;74.0
72124;BME280;63818;37.134;-8.548;2023-11-18T23:11:40;101996.1;;;18.8;74.0
72124;BME280;63818;37.134;-8.548;2023-11-18T23:16:37;101988.6;;;18.8;74.1
72124;BME280;63818;37.134;-8.548;2023-11-18T23:21:25;101993.7;;;18.8;73.7
72124;BME280;63818;37.134;-8.548;2023-11-18T23:26:19;101987.8;;;18.8;73.7
72124;BME280;63818;37.134;-8.548;2023-11-18T23:31:07;101990.4;;;18.7;73.8
72124;BME280;63818;37.134;-8.548;2023-11-18T23:36:04;101990.6;;;18.7;73.5
72124;BME280;63818;37.134;-8.548;2023-11-18T23:40:52;101990.6;;;18.7;73.3
72124;BME280;63818;37.134;-8.548;2023-11-18T23:45:44;101975.3;;;18.6;73.1
72124;BME280;63818;37.134;-8.548;2023-11-18T23:50:32;101977.4;;;18.6;72.7
72124;BME280;63818;37.134;-8.548;2023-11-18T23:55:44;101976.7;;;18.6;73.1
